Time;durP1;ratioP1;P1;durP2;ratioP2;P2;SDS_P1;SDS_P2;PMS_P1;PMS_P2;Temp;Humidity;BMP_temperature;BMP_pressure;BME280_temperature;BME280_humidity;BME280_pressure;Samples;Min_cycle;Max_cycle;Signal;HPM_P1;HPM_P2
2023/05/31 00:56:42;;;;;;;11.40;6.20;;;;;;;;;;4999296;28;20409;-77
2023/05/31 00:59:08;;;;;;;11.35;6.20;;;;;;;;;;4999546;28;20049;-77
2023/05/31 01:01:34;;;;;;;9.88;5.80;;;;;;;;;;5012671;28;20552;-76
2023/05/31 01:04:01;;;;;;;8.23;5.45;;;;;;;;;;5011462;28;20034;-77
2023/05/31 01:06:32;;;;;;;6.95;4.90;;;;;;;;;;5011801;28;20136;-76
2023/05/31 01:08:59;;;;;;;9.90;5.82;;;;;;;;;;5011102;28;20128;-76
2023/05/31 01:11:44;;;;;;;9.00;4.95;;;;;;;;;;5005366;28;20236;-77
2023/05/31 01:14:20;;;;;;;6.78;4.80;;;;;;;;;;5006379;28;20034;-76
2023/05/31 01:17:02;;;;;;;8.18;4.63;;;;;;;;;;5007340;28;20073;-76
2023/05/31 01:19:39;;;;;;;9.18;4.90;;;;;;;;;;5011015;28;20050;-76
2023/05/31 01:22:14;;;;;;;12.90;5.80;;;;;;;;;;5011571;28;20042;-76
2023/05/31 01:24:48;;;;;;;8.45;5.18;;;;;;;;;;5010479;28;20057;-76
2023/05/31 01:27:15;;;;;;;9.52;5.38;;;;;;;;;;5008352;28;20498;-77
2023/05/31 01:29:42;;;;;;;8.32;5.32;;;;;;;;;;5010710;28;20042;-76
2023/05/31 01:32:09;;;;;;;11.25;5.25;;;;;;;;;;5011174;28;20041;-76
2023/05/31 01:34:36;;;;;;;8.65;5.38;;;;;;;;;;5007285;28;20041;-77
2023/05/31 01:37:02;;;;;;;12.40;5.28;;;;;;;;;;5003361;28;20050;-76
2023/05/31 01:39:28;;;;;;;9.95;5.20;;;;;;;;;;5005504;28;20120;-77
2023/05/31 01:41:55;;;;;;;8.40;4.72;;;;;;;;;;5004840;28;20054;-77
2023/05/31 01:44:21;;;;;;;9.27;5.30;;;;;;;;;;5003311;28;20054;-77
2023/05/31 01:46:48;;;;;;;9.25;5.15;;;;;;;;;;5004292;28;20129;-77
2023/05/31 01:49:15;;;;;;;8.90;4.80;;;;;;;;;;5004628;28;20659;-78
2023/05/31 01:51:42;;;;;;;7.75;5.10;;;;;;;;;;5004688;28;20054;-76
2023/05/31 01:54:08;;;;;;;7.28;5.05;;;;;;;;;;5002701;28;20050;-76
2023/05/31 01:56:36;;;;;;;7.47;4.88;;;;;;;;;;5003425;28;20046;-77
2023/05/31 01:59:03;;;;;;;8.80;5.00;;;;;;;;;;5000666;28;20414;-77
2023/05/31 02:01:30;;;;;;;8.13;4.72;;;;;;;;;;5015528;28;20510;-77
2023/05/31 02:03:56;;;;;;;7.97;5.22;;;;;;;;;;5000523;28;20402;-77
2023/05/31 02:06:26;;;;;;;8.35;4.70;;;;;;;;;;5004114;28;20050;-77
2023/05/31 02:08:52;;;;;;;8.68;4.90;;;;;;;;;;5007317;28;20494;-77
2023/05/31 02:11:18;;;;;;;7.90;4.85;;;;;;;;;;5003799;28;20046;-77
2023/05/31 02:13:44;;;;;;;8.82;5.20;;;;;;;;;;5005565;28;20047;-77
2023/05/31 02:16:10;;;;;;;8.38;4.90;;;;;;;;;;5004469;28;20052;-76
2023/05/31 02:18:36;;;;;;;8.23;5.25;;;;;;;;;;5009361;28;20442;-77
2023/05/31 02:21:03;;;;;;;7.60;4.78;;;;;;;;;;5004503;28;20545;-76
2023/05/31 02:23:29;;;;;;;7.80;4.55;;;;;;;;;;5006229;28;20041;-76
2023/05/31 02:25:55;;;;;;;9.05;4.85;;;;;;;;;;5007890;28;22027;-77
2023/05/31 02:28:21;;;;;;;8.85;4.85;;;;;;;;;;5006456;28;20078;-77
2023/05/31 02:30:57;;;;;;;9.55;4.90;;;;;;;;;;5006450;28;20478;-77
2023/05/31 02:33:23;;;;;;;8.90;5.25;;;;;;;;;;5004065;28;20693;-77
2023/05/31 02:35:50;;;;;;;8.27;4.80;;;;;;;;;;5007593;28;20046;-77
2023/05/31 02:38:16;;;;;;;6.95;4.78;;;;;;;;;;5007280;28;20081;-77
2023/05/31 02:40:42;;;;;;;8.63;4.55;;;;;;;;;;5007974;28;20046;-77
2023/05/31 02:43:08;;;;;;;8.90;4.85;;;;;;;;;;5009461;28;20050;-77
2023/05/31 02:45:34;;;;;;;9.63;5.25;;;;;;;;;;5005939;28;20030;-77
2023/05/31 02:48:04;;;;;;;7.13;4.70;;;;;;;;;;5006872;28;20322;-76
2023/05/31 02:50:30;;;;;;;7.80;4.65;;;;;;;;;;5009021;28;20221;-77
2023/05/31 02:52:56;;;;;;;9.38;4.63;;;;;;;;;;4997577;28;20066;-77
2023/05/31 02:55:23;;;;;;;10.90;5.28;;;;;;;;;;5006623;28;20076;-77
2023/05/31 02:57:50;;;;;;;8.68;4.85;;;;;;;;;;5007119;28;20081;-77
2023/05/31 03:00:17;;;;;;;9.43;5.20;;;;;;;;;;5009152;28;20121;-77
2023/05/31 03:02:43;;;;;;;9.50;4.90;;;;;;;;;;5004592;28;20100;-76
2023/05/31 03:05:09;;;;;;;7.10;4.35;;;;;;;;;;5007082;28;20046;-77
2023/05/31 03:07:36;;;;;;;8.73;4.80;;;;;;;;;;5003496;28;20088;-77
2023/05/31 03:10:06;;;;;;;9.05;4.85;;;;;;;;;;5008392;28;20042;-76
2023/05/31 03:12:33;;;;;;;12.88;6.32;;;;;;;;;;5008276;28;20054;-77
2023/05/31 03:14:59;;;;;;;9.23;5.30;;;;;;;;;;5005107;28;20137;-76
2023/05/31 03:17:25;;;;;;;8.68;5.20;;;;;;;;;;5004379;28;20097;-77
2023/05/31 03:19:51;;;;;;;8.25;4.82;;;;;;;;;;4999891;28;20050;-76
2023/05/31 03:22:17;;;;;;;8.38;4.97;;;;;;;;;;5008866;28;20046;-77
2023/05/31 03:24:43;;;;;;;9.57;5.20;;;;;;;;;;5007959;28;20062;-77
2023/05/31 03:27:09;;;;;;;9.23;5.32;;;;;;;;;;5011009;28;20480;-77
2023/05/31 03:29:38;;;;;;;9.18;5.40;;;;;;;;;;5006759;28;20088;-77
2023/05/31 03:32:04;;;;;;;8.35;4.80;;;;;;;;;;5005303;28;20104;-77
2023/05/31 03:34:30;;;;;;;8.68;5.22;;;;;;;;;;5000815;28;20099;-77
2023/05/31 03:36:56;;;;;;;11.00;5.20;;;;;;;;;;5005501;28;20046;-77
2023/05/31 03:39:22;;;;;;;8.48;5.70;;;;;;;;;;5023969;28;20081;-77
2023/05/31 03:41:48;;;;;;;10.30;5.50;;;;;;;;;;5006355;28;20049;-77
2023/05/31 03:44:14;;;;;;;8.80;5.47;;;;;;;;;;5004701;28;20060;-77
2023/05/31 03:46:40;;;;;;;10.40;5.35;;;;;;;;;;5004377;28;20145;-77
2023/05/31 03:49:06;;;;;;;9.25;4.75;;;;;;;;;;4998653;28;20721;-77
2023/05/31 03:51:32;;;;;;;10.57;5.80;;;;;;;;;;5007243;28;20049;-77
2023/05/31 03:53:58;;;;;;;9.18;5.68;;;;;;;;;;5001949;28;20045;-77
2023/05/31 03:56:25;;;;;;;7.85;5.28;;;;;;;;;;4998737;28;20521;-77
2023/05/31 03:58:51;;;;;;;6.60;4.40;;;;;;;;;;5003892;28;20070;-77
2023/05/31 04:01:17;;;;;;;8.90;4.95;;;;;;;;;;5002330;28;20387;-77
2023/05/31 04:03:46;;;;;;;10.55;5.22;;;;;;;;;;4997069;28;20064;-76
2023/05/31 04:06:12;;;;;;;9.50;5.28;;;;;;;;;;5008559;28;20042;-76
2023/05/31 04:08:38;;;;;;;12.82;6.40;;;;;;;;;;5002308;28;20157;-76
2023/05/31 04:11:04;;;;;;;11.00;5.82;;;;;;;;;;5012366;28;20125;-76
2023/05/31 04:13:30;;;;;;;11.30;5.85;;;;;;;;;;5005858;28;20116;-76
2023/05/31 04:15:56;;;;;;;15.48;8.60;;;;;;;;;;5005697;28;20053;-76
2023/05/31 04:18:22;;;;;;;13.45;6.75;;;;;;;;;;5001985;28;20050;-76
2023/05/31 04:20:49;;;;;;;9.57;6.40;;;;;;;;;;5002916;28;20057;-76
2023/05/31 04:23:15;;;;;;;12.43;6.13;;;;;;;;;;5005042;28;20046;-76
2023/05/31 04:25:41;;;;;;;9.32;5.38;;;;;;;;;;5008935;28;20565;-76
2023/05/31 04:28:07;;;;;;;8.40;5.20;;;;;;;;;;5012280;28;20493;-76
2023/05/31 04:30:34;;;;;;;12.65;6.05;;;;;;;;;;5005231;28;20053;-76
2023/05/31 04:33:01;;;;;;;13.35;6.53;;;;;;;;;;5007451;28;20046;-76
2023/05/31 04:35:28;;;;;;;12.20;6.50;;;;;;;;;;5016279;28;20397;-76
2023/05/31 04:37:58;;;;;;;11.18;5.88;;;;;;;;;;5013183;28;20421;-76
2023/05/31 04:40:25;;;;;;;13.73;6.80;;;;;;;;;;5011009;28;20053;-76
2023/05/31 04:42:51;;;;;;;11.73;6.22;;;;;;;;;;5009163;28;20101;-77
2023/05/31 04:45:17;;;;;;;10.60;5.93;;;;;;;;;;5006921;28;20065;-76
2023/05/31 04:47:45;;;;;;;11.48;6.80;;;;;;;;;;5006666;28;20038;-76
2023/05/31 04:50:11;;;;;;;11.60;6.43;;;;;;;;;;5000540;28;20073;-76
2023/05/31 04:52:39;;;;;;;12.98;7.03;;;;;;;;;;5004114;28;20429;-76
2023/05/31 04:55:06;;;;;;;11.43;6.55;;;;;;;;;;5010610;28;20544;-76
2023/05/31 04:57:33;;;;;;;11.35;6.97;;;;;;;;;;5002841;28;20057;-76
2023/05/31 04:59:59;;;;;;;12.90;7.90;;;;;;;;;;5010900;28;20046;-76
2023/05/31 05:02:26;;;;;;;10.18;6.93;;;;;;;;;;5008225;28;20133;-77
2023/05/31 05:04:52;;;;;;;11.35;6.57;;;;;;;;;;5005375;28;20048;-76
2023/05/31 05:07:20;;;;;;;15.32;7.47;;;;;;;;;;5005820;28;20054;-77
2023/05/31 05:09:46;;;;;;;12.68;7.18;;;;;;;;;;5004694;28;20046;-77
2023/05/31 05:12:12;;;;;;;13.15;7.30;;;;;;;;;;5007969;28;20057;-77
2023/05/31 05:14:39;;;;;;;16.90;7.85;;;;;;;;;;5004878;28;20056;-76
2023/05/31 05:17:05;;;;;;;14.15;7.45;;;;;;;;;;5005963;28;20650;-77
2023/05/31 05:19:31;;;;;;;15.48;7.57;;;;;;;;;;5009458;28;20052;-77
2023/05/31 05:21:57;;;;;;;15.23;8.30;;;;;;;;;;5010852;28;20124;-77
2023/05/31 05:24:23;;;;;;;12.27;6.82;;;;;;;;;;5001617;28;20050;-77
2023/05/31 05:26:49;;;;;;;14.10;7.22;;;;;;;;;;5008329;28;20425;-76
2023/05/31 05:29:15;;;;;;;13.13;7.47;;;;;;;;;;5006534;28;20052;-76
2023/05/31 05:31:41;;;;;;;14.98;7.63;;;;;;;;;;5002035;28;20046;-77
2023/05/31 05:34:09;;;;;;;11.95;7.43;;;;;;;;;;5005220;28;20033;-76
2023/05/31 05:36:36;;;;;;;14.45;8.68;;;;;;;;;;5006564;28;20417;-76
2023/05/31 05:39:05;;;;;;;13.57;8.10;;;;;;;;;;5004350;28;20042;-76
2023/05/31 05:41:31;;;;;;;13.18;8.23;;;;;;;;;;5017020;28;20054;-76
2023/05/31 05:43:58;;;;;;;13.65;8.48;;;;;;;;;;5000899;28;20448;-76
2023/05/31 05:46:25;;;;;;;16.17;8.88;;;;;;;;;;5000667;28;20069;-77
2023/05/31 05:48:51;;;;;;;14.93;8.60;;;;;;;;;;5000197;28;20052;-77
2023/05/31 05:51:17;;;;;;;15.48;8.88;;;;;;;;;;5004759;28;20049;-77
2023/05/31 05:53:43;;;;;;;13.73;8.40;;;;;;;;;;4999739;28;20494;-76
2023/05/31 05:56:11;;;;;;;17.40;8.85;;;;;;;;;;4999745;28;20042;-76
2023/05/31 05:58:37;;;;;;;14.65;9.13;;;;;;;;;;5001439;28;20077;-76
2023/05/31 06:01:03;;;;;;;14.77;8.63;;;;;;;;;;5003699;28;20065;-76
2023/05/31 06:03:30;;;;;;;15.07;8.32;;;;;;;;;;5001959;28;20066;-77
2023/05/31 06:05:56;;;;;;;14.75;9.00;;;;;;;;;;5011122;28;20112;-76
2023/05/31 06:08:22;;;;;;;17.83;9.15;;;;;;;;;;5007350;28;20129;-77
2023/05/31 06:10:48;;;;;;;12.93;8.75;;;;;;;;;;5011333;28;20046;-77
2023/05/31 06:13:15;;;;;;;14.25;9.20;;;;;;;;;;5011275;28;20489;-77
2023/05/31 06:15:41;;;;;;;16.25;9.38;;;;;;;;;;5009077;28;20059;-77
2023/05/31 06:18:08;;;;;;;16.80;9.13;;;;;;;;;;5004388;28;20050;-77
2023/05/31 06:20:34;;;;;;;13.68;8.32;;;;;;;;;;5011071;28;20046;-76
2023/05/31 06:23:00;;;;;;;16.35;9.00;;;;;;;;;;5028257;28;20042;-77
2023/05/31 06:25:26;;;;;;;14.32;8.35;;;;;;;;;;5024880;28;20403;-77
2023/05/31 06:27:52;;;;;;;19.10;12.05;;;;;;;;;;5008701;28;20042;-77
2023/05/31 06:30:19;;;;;;;11.75;7.85;;;;;;;;;;5003591;28;20057;-78
2023/05/31 06:32:45;;;;;;;12.57;7.90;;;;;;;;;;5011998;28;20092;-77
2023/05/31 06:35:11;;;;;;;15.55;8.13;;;;;;;;;;5007634;28;20169;-77
2023/05/31 06:37:38;;;;;;;12.80;7.82;;;;;;;;;;5006480;28;20054;-77
2023/05/31 06:40:04;;;;;;;12.90;7.80;;;;;;;;;;5008539;28;20486;-77
2023/05/31 06:42:30;;;;;;;12.82;7.70;;;;;;;;;;5006880;28;20046;-77
2023/05/31 06:44:56;;;;;;;13.68;7.45;;;;;;;;;;4998446;28;20103;-77
2023/05/31 06:47:22;;;;;;;13.88;7.32;;;;;;;;;;4995955;28;20560;-77
2023/05/31 06:49:48;;;;;;;12.15;7.13;;;;;;;;;;5000732;28;20045;-77
2023/05/31 06:52:14;;;;;;;15.98;7.15;;;;;;;;;;4999750;28;20477;-77
2023/05/31 06:54:43;;;;;;;14.10;7.43;;;;;;;;;;5003761;28;20478;-77
2023/05/31 06:57:09;;;;;;;9.60;7.15;;;;;;;;;;5006826;28;20136;-77
2023/05/31 06:59:35;;;;;;;15.00;7.40;;;;;;;;;;5004010;28;20053;-72
2023/05/31 07:02:02;;;;;;;11.68;7.30;;;;;;;;;;4995451;28;20108;-76
2023/05/31 07:04:28;;;;;;;15.27;7.38;;;;;;;;;;5008818;28;20054;-76
2023/05/31 07:06:54;;;;;;;14.80;7.53;;;;;;;;;;4999960;28;20125;-75
2023/05/31 07:09:20;;;;;;;16.15;7.15;;;;;;;;;;5007032;28;20393;-75
2023/05/31 07:11:46;;;;;;;14.15;6.93;;;;;;;;;;5009281;28;20065;-75
2023/05/31 07:14:12;;;;;;;12.90;6.75;;;;;;;;;;5009801;28;20041;-76
2023/05/31 07:16:38;;;;;;;11.93;6.50;;;;;;;;;;5002730;28;20049;-75
2023/05/31 07:19:04;;;;;;;12.25;7.00;;;;;;;;;;5007034;28;20185;-75
2023/05/31 07:21:30;;;;;;;13.38;6.78;;;;;;;;;;4999138;28;20397;-75
2023/05/31 07:23:57;;;;;;;10.90;6.30;;;;;;;;;;5001335;28;20053;-75
2023/05/31 07:26:23;;;;;;;10.80;6.57;;;;;;;;;;5007558;28;20061;-75
2023/05/31 07:28:52;;;;;;;9.95;6.90;;;;;;;;;;5004134;28;20145;-75
2023/05/31 07:31:19;;;;;;;11.63;6.35;;;;;;;;;;5008423;28;20057;-75
2023/05/31 07:33:45;;;;;;;10.98;6.68;;;;;;;;;;5009436;28;20052;-76
2023/05/31 07:36:11;;;;;;;9.30;6.00;;;;;;;;;;4997079;28;20059;-75
2023/05/31 07:38:37;;;;;;;10.23;6.55;;;;;;;;;;5003796;28;20046;-75
2023/05/31 07:41:03;;;;;;;11.50;6.45;;;;;;;;;;5007329;28;20056;-75
2023/05/31 07:43:30;;;;;;;11.52;6.28;;;;;;;;;;5004379;28;20544;-75
2023/05/31 07:45:56;;;;;;;11.45;6.82;;;;;;;;;;5008399;28;20517;-75
2023/05/31 07:48:23;;;;;;;9.05;5.95;;;;;;;;;;5010656;28;20038;-75
2023/05/31 07:50:50;;;;;;;11.32;6.05;;;;;;;;;;5004602;28;20104;-75
2023/05/31 07:53:16;;;;;;;9.55;6.07;;;;;;;;;;5002490;28;20474;-76
2023/05/31 07:55:42;;;;;;;9.63;5.95;;;;;;;;;;5007587;28;20046;-76
2023/05/31 07:58:11;;;;;;;13.57;6.28;;;;;;;;;;4998828;28;20394;-75
2023/05/31 08:00:37;;;;;;;14.48;6.10;;;;;;;;;;5006923;28;20058;-76
2023/05/31 08:03:03;;;;;;;10.35;5.55;;;;;;;;;;4998277;28;20042;-75
2023/05/31 08:05:29;;;;;;;13.32;5.90;;;;;;;;;;5003056;28;20456;-75
2023/05/31 08:07:56;;;;;;;13.45;5.80;;;;;;;;;;5014329;28;20137;-76
2023/05/31 08:10:22;;;;;;;26.48;6.05;;;;;;;;;;5005777;28;20817;-76
2023/05/31 08:12:48;;;;;;;15.00;6.25;;;;;;;;;;5004391;28;20494;-76
2023/05/31 08:15:14;;;;;;;15.70;6.38;;;;;;;;;;5008339;28;20038;-75
2023/05/31 08:17:41;;;;;;;13.27;7.00;;;;;;;;;;5005441;28;20137;-75
2023/05/31 08:20:09;;;;;;;12.00;6.38;;;;;;;;;;5010758;28;20057;-76
2023/05/31 08:22:36;;;;;;;14.38;6.95;;;;;;;;;;5003709;28;20545;-75
2023/05/31 08:25:02;;;;;;;13.52;6.78;;;;;;;;;;5009919;28;20074;-76
2023/05/31 08:27:28;;;;;;;11.23;6.60;;;;;;;;;;5004221;28;20042;-76
2023/05/31 08:29:54;;;;;;;11.70;6.25;;;;;;;;;;5010382;28;20054;-75
2023/05/31 08:32:20;;;;;;;11.93;5.80;;;;;;;;;;5002048;28;20053;-76
2023/05/31 08:34:47;;;;;;;10.88;6.13;;;;;;;;;;5013796;28;20092;-76
2023/05/31 08:37:13;;;;;;;11.38;5.57;;;;;;;;;;5010083;28;20038;-77
2023/05/31 08:39:39;;;;;;;11.70;5.88;;;;;;;;;;5008187;28;20077;-76
2023/05/31 08:42:07;;;;;;;12.77;5.93;;;;;;;;;;5012119;28;20100;-76
2023/05/31 08:44:33;;;;;;;11.45;5.38;;;;;;;;;;5009856;28;20049;-75
2023/05/31 08:47:06;;;;;;;12.73;5.45;;;;;;;;;;5005307;28;20050;-77
2023/05/31 08:49:34;;;;;;;10.93;5.50;;;;;;;;;;5004871;28;20049;-76
2023/05/31 08:52:00;;;;;;;15.30;5.63;;;;;;;;;;5007751;28;20087;-76
2023/05/31 08:54:26;;;;;;;10.75;5.55;;;;;;;;;;4998660;28;20077;-76
2023/05/31 08:56:53;;;;;;;10.23;5.10;;;;;;;;;;4997894;28;20070;-76
2023/05/31 08:59:19;;;;;;;8.98;4.82;;;;;;;;;;5006116;28;20068;-76
2023/05/31 09:01:47;;;;;;;9.80;4.90;;;;;;;;;;5002406;28;20072;-75
2023/05/31 09:04:14;;;;;;;18.83;5.22;;;;;;;;;;5018313;28;20050;-75
2023/05/31 09:06:40;;;;;;;8.32;5.25;;;;;;;;;;5005065;28;20100;-76
2023/05/31 09:09:09;;;;;;;11.50;5.10;;;;;;;;;;5005599;28;20129;-76
2023/05/31 09:11:40;;;;;;;10.32;5.07;;;;;;;;;;5013914;28;20038;-76
2023/05/31 09:14:08;;;;;;;10.63;5.40;;;;;;;;;;5005483;28;20053;-76
2023/05/31 09:16:34;;;;;;;8.93;5.32;;;;;;;;;;5009432;28;20050;-76
2023/05/31 09:19:05;;;;;;;12.40;6.43;;;;;;;;;;5004984;28;20852;-76
2023/05/31 09:21:38;;;;;;;10.80;6.15;;;;;;;;;;5011041;28;20042;-76
2023/05/31 09:24:04;;;;;;;;;;;;;;;;;;5010504;28;20042;-76
2023/05/31 09:26:32;;;;;;;15.20;5.85;;;;;;;;;;5014492;28;20388;-76
2023/05/31 09:28:58;;;;;;;12.38;5.80;;;;;;;;;;5002886;28;20054;-76
2023/05/31 09:31:25;;;;;;;9.05;5.40;;;;;;;;;;5007319;28;20046;-76
2023/05/31 09:33:53;;;;;;;12.27;5.50;;;;;;;;;;5004938;28;20045;-75
2023/05/31 09:36:27;;;;;;;10.82;5.35;;;;;;;;;;5001852;28;20133;-76
2023/05/31 09:39:00;;;;;;;18.88;5.95;;;;;;;;;;4997423;28;20041;-76
2023/05/31 09:41:27;;;;;;;13.73;5.68;;;;;;;;;;5003427;28;20414;-76
2023/05/31 09:43:53;;;;;;;9.77;4.80;;;;;;;;;;5007908;28;20034;-76
2023/05/31 09:46:21;;;;;;;12.60;4.97;;;;;;;;;;5002882;28;20045;-75
2023/05/31 09:49:04;;;;;;;10.43;5.50;;;;;;;;;;4996721;28;20045;-76
2023/05/31 09:51:32;;;;;;;11.20;5.65;;;;;;;;;;5007463;28;20054;-76
2023/05/31 09:54:01;;;;;;;9.52;5.00;;;;;;;;;;5009459;28;20038;-76
2023/05/31 09:56:28;;;;;;;8.82;5.00;;;;;;;;;;4999326;28;20077;-76
2023/05/31 09:58:57;;;;;;;8.98;5.15;;;;;;;;;;4999411;28;20060;-75
2023/05/31 10:01:23;;;;;;;9.20;4.97;;;;;;;;;;5006833;28;20113;-76
2023/05/31 10:03:50;;;;;;;11.65;5.47;;;;;;;;;;5004394;28;20508;-76
2023/05/31 10:06:17;;;;;;;9.90;5.75;;;;;;;;;;5011837;28;20103;-76
2023/05/31 10:08:43;;;;;;;10.85;5.13;;;;;;;;;;5006338;28;20054;-75
2023/05/31 10:11:12;;;;;;;9.65;5.53;;;;;;;;;;5001264;28;20048;-76
2023/05/31 10:13:41;;;;;;;9.32;5.50;;;;;;;;;;5005953;28;20045;-75
2023/05/31 10:16:08;;;;;;;10.77;5.85;;;;;;;;;;4998710;28;20054;-76
2023/05/31 10:18:37;;;;;;;10.10;5.78;;;;;;;;;;4994159;28;20116;-75
2023/05/31 10:21:11;;;;;;;10.23;5.63;;;;;;;;;;5008561;28;20034;-75
2023/05/31 10:23:44;;;;;;;11.07;5.75;;;;;;;;;;5006419;28;20056;-75
2023/05/31 10:26:10;;;;;;;;;;;;;;;;;;5007236;28;20049;-75
2023/05/31 10:28:44;;;;;;;9.93;6.30;;;;;;;;;;5007278;28;19921;-75
2023/05/31 10:31:11;;;;;;;9.45;5.55;;;;;;;;;;5009682;28;20045;-75
2023/05/31 10:33:39;;;;;;;10.40;6.18;;;;;;;;;;5000833;28;20099;-75
2023/05/31 10:36:05;;;;;;;11.27;6.03;;;;;;;;;;5008569;28;20045;-75
2023/05/31 10:38:36;;;;;;;7.65;5.75;;;;;;;;;;4998127;28;20085;-76
2023/05/31 10:41:07;;;;;;;9.10;6.57;;;;;;;;;;5008072;28;20120;-76
2023/05/31 10:43:37;;;;;;;9.05;6.45;;;;;;;;;;5009119;28;20108;-76
2023/05/31 10:46:07;;;;;;;9.02;5.43;;;;;;;;;;5009879;28;20038;-76
2023/05/31 10:48:36;;;;;;;11.98;5.78;;;;;;;;;;5007060;28;20057;-76
2023/05/31 10:51:02;;;;;;;7.53;5.13;;;;;;;;;;4998169;28;20042;-76
2023/05/31 10:53:30;;;;;;;10.88;5.85;;;;;;;;;;5006463;28;20072;-75
2023/05/31 10:56:03;;;;;;;10.07;6.05;;;;;;;;;;5009051;28;20063;-76
2023/05/31 10:58:29;;;;;;;10.73;5.70;;;;;;;;;;5001082;28;20050;-76
2023/05/31 11:00:56;;;;;;;8.55;5.15;;;;;;;;;;4999207;28;20085;-76
2023/05/31 11:03:23;;;;;;;8.98;6.10;;;;;;;;;;5014664;28;20065;-75
2023/05/31 11:05:56;;;;;;;7.68;5.47;;;;;;;;;;5003730;28;20128;-75
2023/05/31 11:08:22;;;;;;;13.90;6.30;;;;;;;;;;5006533;28;20042;-75
2023/05/31 11:10:48;;;;;;;12.52;6.55;;;;;;;;;;5000733;28;20137;-75
2023/05/31 11:13:14;;;;;;;8.38;5.80;;;;;;;;;;4999291;28;20173;-76
2023/05/31 11:15:41;;;;;;;8.02;5.72;;;;;;;;;;5006699;28;20065;-76
2023/05/31 11:18:09;;;;;;;8.43;5.80;;;;;;;;;;5010927;28;20136;-74
2023/05/31 11:20:36;;;;;;;8.82;5.18;;;;;;;;;;5008262;28;20050;-76
2023/05/31 11:23:17;;;;;;;8.95;5.25;;;;;;;;;;5006974;28;20053;-76
2023/05/31 11:25:43;;;;;;;7.47;4.63;;;;;;;;;;5001074;28;20042;-73
2023/05/31 11:28:10;;;;;;;8.75;4.43;;;;;;;;;;5000903;28;20387;-76
2023/05/31 11:30:37;;;;;;;10.88;5.53;;;;;;;;;;5003349;28;20045;-75
2023/05/31 11:33:03;;;;;;;9.52;6.95;;;;;;;;;;5006687;28;20060;-75
2023/05/31 11:35:33;;;;;;;8.65;5.07;;;;;;;;;;5006727;28;20050;-76
2023/05/31 11:38:03;;;;;;;8.70;5.00;;;;;;;;;;4998287;28;20045;-75
2023/05/31 11:40:31;;;;;;;8.48;5.05;;;;;;;;;;4998308;28;20058;-75
2023/05/31 11:43:03;;;;;;;6.35;5.07;;;;;;;;;;5005093;28;20043;-75
2023/05/31 11:45:29;;;;;;;8.40;4.90;;;;;;;;;;4996967;28;20053;-75
2023/05/31 11:48:04;;;;;;;9.95;5.32;;;;;;;;;;5004148;28;20058;-75
2023/05/31 11:50:31;;;;;;;9.25;5.13;;;;;;;;;;5008545;28;20045;-75
2023/05/31 11:52:59;;;;;;;11.68;4.95;;;;;;;;;;5009387;28;20081;-75
2023/05/31 11:55:32;;;;;;;10.15;5.22;;;;;;;;;;5001455;28;20104;-75
2023/05/31 11:57:59;;;;;;;9.88;5.90;;;;;;;;;;5006788;28;20058;-75
2023/05/31 12:00:25;;;;;;;11.20;5.50;;;;;;;;;;5005441;28;20053;-75
2023/05/31 12:03:04;;;;;;;8.85;4.93;;;;;;;;;;5004847;28;20053;-75
2023/05/31 12:05:30;;;;;;;8.88;5.20;;;;;;;;;;5010429;28;20061;-75
2023/05/31 12:07:57;;;;;;;9.10;4.82;;;;;;;;;;5008878;28;20557;-75
2023/05/31 12:10:31;;;;;;;8.82;5.28;;;;;;;;;;5011013;28;20049;-75
2023/05/31 12:12:58;;;;;;;6.40;4.32;;;;;;;;;;5007496;28;20409;-75
2023/05/31 12:15:26;;;;;;;8.80;5.00;;;;;;;;;;5005651;28;20046;-76
2023/05/31 12:17:52;;;;;;;13.23;5.53;;;;;;;;;;5005468;28;20646;-75
2023/05/31 12:20:18;;;;;;;12.57;5.32;;;;;;;;;;5007683;28;20038;-76
2023/05/31 12:22:44;;;;;;;8.85;5.63;;;;;;;;;;4994167;28;20039;-75
2023/05/31 12:25:10;;;;;;;7.07;4.95;;;;;;;;;;4993507;28;20053;-75
2023/05/31 12:27:36;;;;;;;9.35;5.07;;;;;;;;;;5002815;28;20433;-75
2023/05/31 12:30:03;;;;;;;10.35;5.85;;;;;;;;;;5006566;28;20088;-75
2023/05/31 12:32:29;;;;;;;9.35;4.93;;;;;;;;;;5008011;28;20050;-75
2023/05/31 12:35:24;;;;;;;7.72;4.95;;;;;;;;;;5005314;28;20053;-75
2023/05/31 12:37:51;;;;;;;9.05;4.82;;;;;;;;;;4994938;28;20077;-74
2023/05/31 12:40:22;;;;;;;8.95;4.85;;;;;;;;;;5000607;28;20052;-76
2023/05/31 12:42:48;;;;;;;10.13;4.60;;;;;;;;;;5004353;28;20057;-75
2023/05/31 12:45:18;;;;;;;7.78;5.10;;;;;;;;;;5002819;28;20497;-74
2023/05/31 12:47:44;;;;;;;8.60;4.95;;;;;;;;;;5009046;28;20104;-75
2023/05/31 12:50:11;;;;;;;11.52;5.32;;;;;;;;;;5006480;28;20108;-75
2023/05/31 12:52:40;;;;;;;8.05;4.88;;;;;;;;;;5010690;28;20511;-75
2023/05/31 12:55:07;;;;;;;10.82;5.78;;;;;;;;;;5006044;28;20042;-75
2023/05/31 12:57:34;;;;;;;10.05;6.10;;;;;;;;;;5010336;28;20057;-75
2023/05/31 13:00:04;;;;;;;9.57;6.25;;;;;;;;;;5009318;28;20111;-75
2023/05/31 13:02:30;;;;;;;10.43;5.80;;;;;;;;;;5007671;28;20051;-75
2023/05/31 13:04:56;;;;;;;10.30;6.07;;;;;;;;;;5010475;28;20052;-76
2023/05/31 13:07:22;;;;;;;9.52;5.80;;;;;;;;;;5009262;28;20046;-75
2023/05/31 13:09:48;;;;;;;8.65;6.05;;;;;;;;;;5010608;28;20418;-74
2023/05/31 13:12:14;;;;;;;10.43;5.88;;;;;;;;;;4997382;28;20143;-77
2023/05/31 13:14:40;;;;;;;9.55;5.60;;;;;;;;;;5007981;28;20045;-74
2023/05/31 13:17:06;;;;;;;10.85;5.13;;;;;;;;;;5009332;28;20050;-75
2023/05/31 13:19:32;;;;;;;7.78;4.97;;;;;;;;;;5010450;28;20049;-74
2023/05/31 13:21:59;;;;;;;8.60;4.40;;;;;;;;;;5013480;28;20045;-74
2023/05/31 13:24:25;;;;;;;11.15;5.45;;;;;;;;;;5028760;28;20041;-75
2023/05/31 13:26:51;;;;;;;9.93;5.15;;;;;;;;;;5011808;28;20048;-75
2023/05/31 13:29:17;;;;;;;8.80;5.05;;;;;;;;;;5012819;28;20054;-75
2023/05/31 13:31:43;;;;;;;11.98;4.93;;;;;;;;;;5010646;28;20624;-74
2023/05/31 13:34:09;;;;;;;7.60;4.80;;;;;;;;;;5011201;28;20125;-74
2023/05/31 13:36:37;;;;;;;8.10;4.40;;;;;;;;;;5001294;28;20042;-74
2023/05/31 13:39:03;;;;;;;7.90;4.82;;;;;;;;;;5009311;28;20056;-74
2023/05/31 13:41:30;;;;;;;11.13;5.38;;;;;;;;;;5012392;28;20129;-74
2023/05/31 13:43:56;;;;;;;10.45;4.60;;;;;;;;;;5011662;28;20061;-73
2023/05/31 13:46:22;;;;;;;8.95;5.03;;;;;;;;;;4994038;28;20050;-75
2023/05/31 13:48:48;;;;;;;8.43;5.10;;;;;;;;;;5008140;28;20042;-75
2023/05/31 13:51:15;;;;;;;11.85;5.60;;;;;;;;;;5000291;28;20038;-75
2023/05/31 13:53:41;;;;;;;10.75;5.72;;;;;;;;;;5009815;28;20065;-75
2023/05/31 13:56:08;;;;;;;12.43;6.20;;;;;;;;;;5010748;28;20492;-74
2023/05/31 13:58:38;;;;;;;10.15;5.55;;;;;;;;;;4994059;28;20077;-74
2023/05/31 14:01:06;;;;;;;8.45;5.20;;;;;;;;;;4999131;28;20042;-75
2023/05/31 14:03:33;;;;;;;8.95;6.00;;;;;;;;;;4993047;28;20100;-74
2023/05/31 14:05:59;;;;;;;9.20;5.93;;;;;;;;;;4993079;28;20104;-74
2023/05/31 14:08:26;;;;;;;10.10;6.28;;;;;;;;;;5009830;28;20493;-74
2023/05/31 14:10:52;;;;;;;8.18;5.25;;;;;;;;;;5006078;28;20473;-73
2023/05/31 14:13:18;;;;;;;9.57;5.32;;;;;;;;;;5004769;28;20041;-74
2023/05/31 14:15:44;;;;;;;8.45;4.68;;;;;;;;;;4998924;28;20042;-73
2023/05/31 14:18:10;;;;;;;8.43;4.75;;;;;;;;;;5009310;28;20137;-73
2023/05/31 14:20:36;;;;;;;7.85;5.13;;;;;;;;;;5011737;28;20053;-73
2023/05/31 14:23:03;;;;;;;9.35;5.20;;;;;;;;;;5010138;28;20402;-74
2023/05/31 14:25:30;;;;;;;9.32;4.65;;;;;;;;;;5025321;28;20046;-74
2023/05/31 14:27:56;;;;;;;8.93;4.70;;;;;;;;;;5007798;28;20045;-73
2023/05/31 14:30:22;;;;;;;7.60;4.28;;;;;;;;;;5009438;28;20053;-73
2023/05/31 14:32:48;;;;;;;7.90;4.15;;;;;;;;;;5003961;28;20136;-74
2023/05/31 14:35:14;;;;;;;6.95;4.00;;;;;;;;;;5005609;28;20049;-73
2023/05/31 14:37:40;;;;;;;6.38;4.35;;;;;;;;;;4998262;28;20470;-74
2023/05/31 14:40:06;;;;;;;7.68;4.00;;;;;;;;;;5007688;28;20049;-73
2023/05/31 14:42:33;;;;;;;8.65;4.45;;;;;;;;;;5003280;28;20069;-74
2023/05/31 14:45:03;;;;;;;6.93;4.10;;;;;;;;;;5000700;28;20501;-74
2023/05/31 14:47:29;;;;;;;6.18;4.30;;;;;;;;;;5006756;28;20073;-74
2023/05/31 14:49:55;;;;;;;7.45;4.10;;;;;;;;;;5012913;28;20045;-74
2023/05/31 14:52:21;;;;;;;6.00;4.10;;;;;;;;;;4993303;28;20569;-74
2023/05/31 14:54:47;;;;;;;7.07;4.13;;;;;;;;;;5004520;28;20042;-74
2023/05/31 14:57:13;;;;;;;7.03;4.07;;;;;;;;;;5000880;28;20139;-74
2023/05/31 14:59:40;;;;;;;6.32;3.70;;;;;;;;;;5011553;28;20184;-74
2023/05/31 15:02:07;;;;;;;6.63;3.58;;;;;;;;;;5011125;28;20077;-73
2023/05/31 15:04:33;;;;;;;4.47;3.70;;;;;;;;;;5011752;28;20501;-74
2023/05/31 15:06:59;;;;;;;4.00;3.60;;;;;;;;;;5010330;28;20053;-74
2023/05/31 15:09:25;;;;;;;4.75;4.10;;;;;;;;;;4991291;28;20050;-74
2023/05/31 15:11:51;;;;;;;6.15;3.50;;;;;;;;;;4995987;28;20041;-73
2023/05/31 15:14:17;;;;;;;12.35;4.28;;;;;;;;;;5002154;28;20073;-73
2023/05/31 15:16:44;;;;;;;5.50;3.78;;;;;;;;;;5012558;28;20042;-74
2023/05/31 15:19:10;;;;;;;9.30;3.78;;;;;;;;;;5025827;28;20049;-74
2023/05/31 15:21:36;;;;;;;6.03;3.72;;;;;;;;;;5007552;28;20108;-75
2023/05/31 15:24:02;;;;;;;6.85;3.50;;;;;;;;;;5005979;28;20490;-75
2023/05/31 15:26:28;;;;;;;5.40;3.78;;;;;;;;;;4997568;28;20057;-75
2023/05/31 15:28:54;;;;;;;6.32;3.88;;;;;;;;;;5000326;28;20456;-74
2023/05/31 15:31:20;;;;;;;5.60;3.90;;;;;;;;;;5003266;28;20046;-74
2023/05/31 15:33:46;;;;;;;7.18;4.10;;;;;;;;;;4991926;28;20053;-75